PWSweather.com
Personal Weather Stations
Station Observations

SkegnessGB

Lat: 53.147585, Lon: 0.345774

Elevation: 18

Station Type: Fine Offset WH3080

http://www.skegnessweather.info/

High Low Average
Temperature 60.8°F16.0°C 42.6°F5.9°C 51.5°F10.8°C
Dew Point 48.0°F8.9°C 40.6°F4.8°C 45.0°F7.2°C
Winds 12.8 mph 20.6 kmh 0.3 mph 0.5 kmh 7.0 mph NE11.3 kmh NE
Wind Gusts 16.0 mph25.7 kmh 1.7 mph2.7 kmh 8.0 mph12.9 kmh
Humidity 100% 58% 80%
Pressure 30.20 in1022.7 mb 30.09 in1019.0 mb -
Precipitation 0.00 in0.0 mm - -
Hour Temp Dew Point Humidity Winds Wind Gusts Pressure Precip Precip Rate Daily Precip Total
12:00 AM 45.3°F7.4°C 45.3°F7.4°C 100% 1.7 mph WSW2.7 kmh WSW 2.5 mph4.0 kmh 30.09 in1019.0 mb 0.00 in0.0 mm 0.00 in0.0 mm 0.00 in0.0 mm
12:10 AM 45.5°F7.5°C 45.5°F7.5°C 100% 1.0 mph ESE1.6 kmh ESE 1.7 mph2.7 kmh 30.09 in1019.0 mb 0.00 in0.0 mm 0.00 in0.0 mm 0.00 in0.0 mm
12:20 AM 45.3°F7.4°C 45.3°F7.4°C 100% 0.3 mph SW0.5 kmh SW 2.5 mph4.0 kmh 30.09 in1019.0 mb 0.00 in0.0 mm 0.00 in0.0 mm 0.00 in0.0 mm
12:30 AM 45.1°F7.3°C 45.1°F7.3°C 100% 0.6 mph S1.0 kmh S 1.7 mph2.7 kmh 30.10 in1019.3 mb 0.00 in0.0 mm 0.00 in0.0 mm 0.00 in0.0 mm
12:40 AM 45.1°F7.3°C 45.1°F7.3°C 100% 1.3 mph NE2.1 kmh NE 3.4 mph5.5 kmh 30.10 in1019.3 mb 0.00 in0.0 mm 0.00 in0.0 mm 0.00 in0.0 mm
12:50 AM 44.8°F7.1°C 44.8°F7.1°C 100% 1.2 mph SW1.9 kmh SW 2.5 mph4.0 kmh 30.10 in1019.3 mb 0.00 in0.0 mm 0.00 in0.0 mm 0.00 in0.0 mm
01:00 AM 44.4°F6.9°C 44.4°F6.9°C 100% 0.4 mph N0.6 kmh N 1.7 mph2.7 kmh 30.09 in1019.0 mb 0.00 in0.0 mm 0.00 in0.0 mm 0.00 in0.0 mm
01:10 AM 44.1°F6.7°C 44.1°F6.7°C 100% 1.1 mph NNW1.8 kmh NNW 2.5 mph4.0 kmh 30.09 in1019.0 mb 0.00 in0.0 mm 0.00 in0.0 mm 0.00 in0.0 mm
01:20 AM 43.9°F6.6°C 43.9°F6.6°C 100% 0.7 mph N1.1 kmh N 3.4 mph5.5 kmh 30.09 in1019.0 mb 0.00 in0.0 mm 0.00 in0.0 mm 0.00 in0.0 mm
01:30 AM 43.7°F6.5°C 43.4°F6.3°C 99% 1.3 mph NNW2.1 kmh NNW 3.4 mph5.5 kmh 30.09 in1019.0 mb 0.00 in0.0 mm 0.00 in0.0 mm 0.00 in0.0 mm
01:40 AM 43.5°F6.4°C 42.7°F5.9°C 97% 0.5 mph NE0.8 kmh NE 1.7 mph2.7 kmh 30.09 in1019.0 mb 0.00 in0.0 mm 0.00 in0.0 mm 0.00 in0.0 mm
01:50 AM 43.5°F6.4°C 42.2°F5.7°C 95% 1.4 mph NE2.3 kmh NE 2.5 mph4.0 kmh 30.09 in1019.0 mb 0.00 in0.0 mm 0.00 in0.0 mm 0.00 in0.0 mm
02:00 AM 43.3°F6.3°C 41.7°F5.4°C 94% 2.3 mph NNE3.7 kmh NNE 3.4 mph5.5 kmh 30.09 in1019.0 mb 0.00 in0.0 mm 0.00 in0.0 mm 0.00 in0.0 mm
02:10 AM 43.2°F6.2°C 41.3°F5.2°C 93% 2.8 mph NE4.5 kmh NE 2.5 mph4.0 kmh 30.09 in1019.0 mb 0.00 in0.0 mm 0.00 in0.0 mm 0.00 in0.0 mm
02:20 AM 43.0°F6.1°C 40.8°F4.9°C 92% 2.2 mph NNE3.5 kmh NNE 4.2 mph6.8 kmh 30.10 in1019.3 mb 0.00 in0.0 mm 0.00 in0.0 mm 0.00 in0.0 mm
02:30 AM 42.8°F6.0°C 40.6°F4.8°C 92% 1.7 mph N2.7 kmh N 2.5 mph4.0 kmh 30.10 in1019.3 mb 0.00 in0.0 mm 0.00 in0.0 mm 0.00 in0.0 mm
02:40 AM 42.6°F5.9°C 41.8°F5.4°C 97% 2.7 mph NE4.3 kmh NE 4.2 mph6.8 kmh 30.10 in1019.3 mb 0.00 in0.0 mm 0.00 in0.0 mm 0.00 in0.0 mm
02:50 AM 43.0°F6.1°C 41.1°F5.1°C 93% 2.3 mph ENE3.7 kmh ENE 4.2 mph6.8 kmh 30.10 in1019.3 mb 0.00 in0.0 mm 0.00 in0.0 mm 0.00 in0.0 mm
03:00 AM 43.2°F6.2°C 41.3°F5.2°C 93% 2.3 mph NE3.7 kmh NE 3.4 mph5.5 kmh 30.10 in1019.3 mb 0.00 in0.0 mm 0.00 in0.0 mm 0.00 in0.0 mm
03:10 AM 43.3°F6.3°C 41.2°F5.1°C 92% 2.2 mph NNE3.5 kmh NNE 4.9 mph7.9 kmh 30.10 in1019.3 mb 0.00 in0.0 mm 0.00 in0.0 mm 0.00 in0.0 mm
03:20 AM 43.5°F6.4°C 41.4°F5.2°C 92% 2.7 mph ESE4.3 kmh ESE 4.2 mph6.8 kmh 30.10 in1019.3 mb 0.00 in0.0 mm 0.00 in0.0 mm 0.00 in0.0 mm
03:30 AM 43.5°F6.4°C 41.6°F5.3°C 93% 2.0 mph E3.2 kmh E 4.2 mph6.8 kmh 30.10 in1019.3 mb 0.00 in0.0 mm 0.00 in0.0 mm 0.00 in0.0 mm
03:40 AM 43.5°F6.4°C 41.6°F5.3°C 93% 3.1 mph E5.0 kmh E 6.6 mph10.6 kmh 30.10 in1019.3 mb 0.00 in0.0 mm 0.00 in0.0 mm 0.00 in0.0 mm
03:50 AM 43.5°F6.4°C 41.9°F5.5°C 94% 1.6 mph N2.6 kmh N 2.5 mph4.0 kmh 30.10 in1019.3 mb 0.00 in0.0 mm 0.00 in0.0 mm 0.00 in0.0 mm
04:00 AM 43.7°F6.5°C 42.1°F5.6°C 94% 3.0 mph NE4.8 kmh NE 4.2 mph6.8 kmh 30.10 in1019.3 mb 0.00 in0.0 mm 0.00 in0.0 mm 0.00 in0.0 mm
04:10 AM 43.5°F6.4°C 42.2°F5.7°C 95% 5.1 mph NNE8.2 kmh NNE 4.2 mph6.8 kmh 30.10 in1019.3 mb 0.00 in0.0 mm 0.00 in0.0 mm 0.00 in0.0 mm
04:20 AM 43.5°F6.4°C 42.5°F5.8°C 96% 4.3 mph NE6.9 kmh NE 4.9 mph7.9 kmh 30.11 in1019.6 mb 0.00 in0.0 mm 0.00 in0.0 mm 0.00 in0.0 mm
04:30 AM 43.5°F6.4°C 42.5°F5.8°C 96% 2.4 mph NE3.9 kmh NE 5.9 mph9.5 kmh 30.11 in1019.6 mb 0.00 in0.0 mm 0.00 in0.0 mm 0.00 in0.0 mm
04:40 AM 43.7°F6.5°C 42.6°F5.9°C 96% 2.2 mph NE3.5 kmh NE 3.4 mph5.5 kmh 30.11 in1019.6 mb 0.00 in0.0 mm 0.00 in0.0 mm 0.00 in0.0 mm
04:50 AM 43.9°F6.6°C 42.5°F5.8°C 95% 1.8 mph E2.9 kmh E 2.5 mph4.0 kmh 30.10 in1019.3 mb 0.00 in0.0 mm 0.00 in0.0 mm 0.00 in0.0 mm
05:00 AM 44.2°F6.8°C 42.9°F6.1°C 95% 2.1 mph N3.4 kmh N 4.9 mph7.9 kmh 30.11 in1019.6 mb 0.00 in0.0 mm 0.00 in0.0 mm 0.00 in0.0 mm
05:10 AM 44.8°F7.1°C 43.2°F6.2°C 94% 2.6 mph NE4.2 kmh NE 4.2 mph6.8 kmh 30.11 in1019.6 mb 0.00 in0.0 mm 0.00 in0.0 mm 0.00 in0.0 mm
05:20 AM 45.0°F7.2°C 43.1°F6.2°C 93% 1.9 mph N3.1 kmh N 3.4 mph5.5 kmh 30.11 in1019.6 mb 0.00 in0.0 mm 0.00 in0.0 mm 0.00 in0.0 mm
05:30 AM 45.7°F7.6°C 43.5°F6.4°C 92% 2.5 mph E4.0 kmh E 4.2 mph6.8 kmh 30.11 in1019.6 mb 0.00 in0.0 mm 0.00 in0.0 mm 0.00 in0.0 mm
05:40 AM 46.4°F8.0°C 43.3°F6.3°C 89% 2.5 mph NE4.0 kmh NE 3.4 mph5.5 kmh 30.11 in1019.6 mb 0.00 in0.0 mm 0.00 in0.0 mm 0.00 in0.0 mm
05:50 AM 47.1°F8.4°C 42.8°F6.0°C 85% 2.6 mph ENE4.2 kmh ENE 4.2 mph6.8 kmh 30.11 in1019.6 mb 0.00 in0.0 mm 0.00 in0.0 mm 0.00 in0.0 mm
06:00 AM 47.7°F8.7°C 42.8°F6.0°C 83% 4.7 mph NE7.6 kmh NE 5.9 mph9.5 kmh 30.11 in1019.6 mb 0.00 in0.0 mm 0.00 in0.0 mm 0.00 in0.0 mm
06:10 AM 48.0°F8.9°C 42.8°F6.0°C 82% 3.9 mph NE6.3 kmh NE 5.9 mph9.5 kmh 30.11 in1019.6 mb 0.00 in0.0 mm 0.00 in0.0 mm 0.00 in0.0 mm
06:20 AM 48.4°F9.1°C 43.1°F6.2°C 82% 4.9 mph N7.9 kmh N 7.6 mph12.2 kmh 30.12 in1020.0 mb 0.00 in0.0 mm 0.00 in0.0 mm 0.00 in0.0 mm
06:30 AM 48.6°F9.2°C 43.3°F6.3°C 82% 5.2 mph NE8.4 kmh NE 6.6 mph10.6 kmh 30.13 in1020.3 mb 0.00 in0.0 mm 0.00 in0.0 mm 0.00 in0.0 mm
06:40 AM 48.9°F9.4°C 43.7°F6.5°C 82% 5.7 mph NE9.2 kmh NE 6.6 mph10.6 kmh 30.13 in1020.3 mb 0.00 in0.0 mm 0.00 in0.0 mm 0.00 in0.0 mm
06:50 AM 49.3°F9.6°C 43.7°F6.5°C 81% 7.2 mph E11.6 kmh E 11.8 mph19.0 kmh 30.13 in1020.3 mb 0.00 in0.0 mm 0.00 in0.0 mm 0.00 in0.0 mm
07:00 AM 49.8°F9.9°C 44.5°F6.9°C 82% 6.2 mph NE10.0 kmh NE 7.6 mph12.2 kmh 30.14 in1020.7 mb 0.00 in0.0 mm 0.00 in0.0 mm 0.00 in0.0 mm
07:10 AM 50.5°F10.3°C 45.2°F7.3°C 82% 6.6 mph NNE10.6 kmh NNE 7.6 mph12.2 kmh 30.14 in1020.7 mb 0.00 in0.0 mm 0.00 in0.0 mm 0.00 in0.0 mm
07:20 AM 50.9°F10.5°C 45.3°F7.4°C 81% 6.3 mph NE10.1 kmh NE 9.1 mph14.6 kmh 30.14 in1020.7 mb 0.00 in0.0 mm 0.00 in0.0 mm 0.00 in0.0 mm
07:30 AM 51.6°F10.9°C 46.3°F7.9°C 82% 6.1 mph NNE9.8 kmh NNE 9.1 mph14.6 kmh 30.14 in1020.7 mb 0.00 in0.0 mm 0.00 in0.0 mm 0.00 in0.0 mm
07:40 AM 52.3°F11.3°C 43.9°F6.6°C 73% 8.1 mph NE13.0 kmh NE 11.8 mph19.0 kmh 30.15 in1021.0 mb 0.00 in0.0 mm 0.00 in0.0 mm 0.00 in0.0 mm
07:50 AM 52.9°F11.6°C 44.1°F6.7°C 72% 11.7 mph N18.8 kmh N 11.8 mph19.0 kmh 30.15 in1021.0 mb 0.00 in0.0 mm 0.00 in0.0 mm 0.00 in0.0 mm
08:00 AM 53.2°F11.8°C 44.4°F6.9°C 72% 11.6 mph NNE18.7 kmh NNE 12.5 mph20.1 kmh 30.15 in1021.0 mb 0.00 in0.0 mm 0.00 in0.0 mm 0.00 in0.0 mm
08:10 AM 53.1°F11.7°C 44.3°F6.8°C 72% 11.1 mph NNW17.9 kmh NNW 14.3 mph23.0 kmh 30.16 in1021.3 mb 0.00 in0.0 mm 0.00 in0.0 mm 0.00 in0.0 mm
08:20 AM 53.1°F11.7°C 44.6°F7.0°C 73% 10.5 mph NNE16.9 kmh NNE 11.8 mph19.0 kmh 30.15 in1021.0 mb 0.00 in0.0 mm 0.00 in0.0 mm 0.00 in0.0 mm
08:30 AM 53.2°F11.8°C 44.8°F7.1°C 73% 10.9 mph NE17.5 kmh NE 10.8 mph17.4 kmh 30.16 in1021.3 mb 0.00 in0.0 mm 0.00 in0.0 mm 0.00 in0.0 mm
08:40 AM 54.0°F12.2°C 45.5°F7.5°C 73% 10.2 mph NE16.4 kmh NE 10.8 mph17.4 kmh 30.16 in1021.3 mb 0.00 in0.0 mm 0.00 in0.0 mm 0.00 in0.0 mm
08:50 AM 54.9°F12.7°C 46.0°F7.8°C 72% 9.8 mph NE15.8 kmh NE 10.8 mph17.4 kmh 30.16 in1021.3 mb 0.00 in0.0 mm 0.00 in0.0 mm 0.00 in0.0 mm
09:00 AM 55.2°F12.9°C 46.3°F7.9°C 72% 10.6 mph NE17.1 kmh NE 13.3 mph21.4 kmh 30.16 in1021.3 mb 0.00 in0.0 mm 0.00 in0.0 mm 0.00 in0.0 mm
09:10 AM 55.9°F13.3°C 46.3°F7.9°C 70% 10.7 mph NE17.2 kmh NE 16.0 mph25.7 kmh 30.16 in1021.3 mb 0.00 in0.0 mm 0.00 in0.0 mm 0.00 in0.0 mm
09:20 AM 56.1°F13.4°C 46.8°F8.2°C 71% 10.1 mph NNE16.3 kmh NNE 10.8 mph17.4 kmh 30.16 in1021.3 mb 0.00 in0.0 mm 0.00 in0.0 mm 0.00 in0.0 mm
09:30 AM 57.2°F14.0°C 47.5°F8.6°C 70% 10.5 mph NE16.9 kmh NE 11.8 mph19.0 kmh 30.16 in1021.3 mb 0.00 in0.0 mm 0.00 in0.0 mm 0.00 in0.0 mm
09:40 AM 57.2°F14.0°C 46.3°F7.9°C 67% 10.1 mph NE16.3 kmh NE 12.5 mph20.1 kmh 30.16 in1021.3 mb 0.00 in0.0 mm 0.00 in0.0 mm 0.00 in0.0 mm
09:50 AM 57.7°F14.3°C 46.9°F8.3°C 67% 10.1 mph NNE16.3 kmh NNE 10.8 mph17.4 kmh 30.16 in1021.3 mb 0.00 in0.0 mm 0.00 in0.0 mm 0.00 in0.0 mm
10:00 AM 58.3°F14.6°C 47.4°F8.6°C 67% 10.7 mph ENE17.2 kmh ENE 11.8 mph19.0 kmh 30.16 in1021.3 mb 0.00 in0.0 mm 0.00 in0.0 mm 0.00 in0.0 mm
10:10 AM 59.4°F15.2°C 48.0°F8.9°C 66% 10.1 mph ENE16.3 kmh ENE 10.1 mph16.3 kmh 30.16 in1021.3 mb 0.00 in0.0 mm 0.00 in0.0 mm 0.00 in0.0 mm
10:20 AM 59.7°F15.4°C 47.9°F8.8°C 65% 9.4 mph ENE15.1 kmh ENE 10.1 mph16.3 kmh 30.16 in1021.3 mb 0.00 in0.0 mm 0.00 in0.0 mm 0.00 in0.0 mm
10:30 AM 59.9°F15.5°C 47.7°F8.7°C 64% 9.8 mph NE15.8 kmh NE 10.8 mph17.4 kmh 30.16 in1021.3 mb 0.00 in0.0 mm 0.00 in0.0 mm 0.00 in0.0 mm
10:40 AM 60.3°F15.7°C 47.6°F8.7°C 63% 10.5 mph NE16.9 kmh NE 11.8 mph19.0 kmh 30.16 in1021.3 mb 0.00 in0.0 mm 0.00 in0.0 mm 0.00 in0.0 mm
10:50 AM 60.8°F16.0°C 45.9°F7.7°C 58% 10.7 mph NNE17.2 kmh NNE 12.5 mph20.1 kmh 30.16 in1021.3 mb 0.00 in0.0 mm 0.00 in0.0 mm 0.00 in0.0 mm
11:00 AM 60.4°F15.8°C 46.9°F8.3°C 61% 10.0 mph NE16.1 kmh NE 12.5 mph20.1 kmh 30.16 in1021.3 mb 0.00 in0.0 mm 0.00 in0.0 mm 0.00 in0.0 mm
11:10 AM 59.2°F15.1°C 46.6°F8.1°C 63% 9.7 mph NE15.6 kmh NE 10.8 mph17.4 kmh 30.16 in1021.3 mb 0.00 in0.0 mm 0.00 in0.0 mm 0.00 in0.0 mm
11:20 AM 58.6°F14.8°C 46.9°F8.3°C 65% 12.8 mph NNE20.6 kmh NNE 13.3 mph21.4 kmh 30.16 in1021.3 mb 0.00 in0.0 mm 0.00 in0.0 mm 0.00 in0.0 mm
11:30 AM 59.0°F15.0°C 46.8°F8.2°C 64% 10.5 mph NE16.9 kmh NE 11.8 mph19.0 kmh 30.16 in1021.3 mb 0.00 in0.0 mm 0.00 in0.0 mm 0.00 in0.0 mm
11:40 AM 59.5°F15.3°C 46.5°F8.1°C 62% 12.8 mph NE20.6 kmh NE 12.5 mph20.1 kmh 30.17 in1021.7 mb 0.00 in0.0 mm 0.00 in0.0 mm 0.00 in0.0 mm
11:50 AM 59.2°F15.1°C 47.0°F8.3°C 64% 10.4 mph NNE16.7 kmh NNE 12.5 mph20.1 kmh 30.17 in1021.7 mb 0.00 in0.0 mm 0.00 in0.0 mm 0.00 in0.0 mm
12:00 PM 59.4°F15.2°C 47.6°F8.7°C 65% 9.8 mph N15.8 kmh N 12.5 mph20.1 kmh 30.17 in1021.7 mb 0.00 in0.0 mm 0.00 in0.0 mm 0.00 in0.0 mm
12:10 PM 59.5°F15.3°C 46.9°F8.3°C 63% 8.9 mph N14.3 kmh N 11.8 mph19.0 kmh 30.17 in1021.7 mb 0.00 in0.0 mm 0.00 in0.0 mm 0.00 in0.0 mm
12:20 PM 59.0°F15.0°C 46.4°F8.0°C 63% 10.9 mph NE17.5 kmh NE 11.8 mph19.0 kmh 30.17 in1021.7 mb 0.00 in0.0 mm 0.00 in0.0 mm 0.00 in0.0 mm
12:30 PM 58.5°F14.7°C 46.3°F7.9°C 64% 10.6 mph N17.1 kmh N 13.3 mph21.4 kmh 30.17 in1021.7 mb 0.00 in0.0 mm 0.00 in0.0 mm 0.00 in0.0 mm
12:40 PM 58.5°F14.7°C 46.7°F8.2°C 65% 10.3 mph NNE16.6 kmh NNE 11.8 mph19.0 kmh 30.17 in1021.7 mb 0.00 in0.0 mm 0.00 in0.0 mm 0.00 in0.0 mm
12:50 PM 59.7°F15.4°C 47.1°F8.4°C 63% 10.0 mph NE16.1 kmh NE 14.3 mph23.0 kmh 30.18 in1022.0 mb 0.00 in0.0 mm 0.00 in0.0 mm 0.00 in0.0 mm
01:00 PM 59.0°F15.0°C 46.4°F8.0°C 63% 9.5 mph NE15.3 kmh NE 9.1 mph14.6 kmh 30.18 in1022.0 mb 0.00 in0.0 mm 0.00 in0.0 mm 0.00 in0.0 mm
01:10 PM 59.9°F15.5°C 47.7°F8.7°C 64% 9.3 mph NNE15.0 kmh NNE 11.8 mph19.0 kmh 30.18 in1022.0 mb 0.00 in0.0 mm 0.00 in0.0 mm 0.00 in0.0 mm
01:20 PM 59.2°F15.1°C 46.6°F8.1°C 63% 9.5 mph NE15.3 kmh NE 10.8 mph17.4 kmh 30.18 in1022.0 mb 0.00 in0.0 mm 0.00 in0.0 mm 0.00 in0.0 mm
01:30 PM 59.2°F15.1°C 47.4°F8.6°C 65% 7.8 mph NE12.6 kmh NE 9.1 mph14.6 kmh 30.18 in1022.0 mb 0.00 in0.0 mm 0.00 in0.0 mm 0.00 in0.0 mm
01:40 PM 58.3°F14.6°C 47.4°F8.6°C 67% 9.0 mph NNE14.5 kmh NNE 10.8 mph17.4 kmh 30.17 in1021.7 mb 0.00 in0.0 mm 0.00 in0.0 mm 0.00 in0.0 mm
01:50 PM 57.9°F14.4°C 47.0°F8.3°C 67% 8.1 mph NE13.0 kmh NE 10.1 mph16.3 kmh 30.18 in1022.0 mb 0.00 in0.0 mm 0.00 in0.0 mm 0.00 in0.0 mm
02:00 PM 57.7°F14.3°C 47.2°F8.4°C 68% 8.7 mph NE14.0 kmh NE 10.8 mph17.4 kmh 30.18 in1022.0 mb 0.00 in0.0 mm 0.00 in0.0 mm 0.00 in0.0 mm
02:10 PM 57.2°F14.0°C 47.1°F8.4°C 69% 12.1 mph N19.5 kmh N 12.5 mph20.1 kmh 30.18 in1022.0 mb 0.00 in0.0 mm 0.00 in0.0 mm 0.00 in0.0 mm
02:20 PM 57.7°F14.3°C 47.6°F8.7°C 69% 10.6 mph NNE17.1 kmh NNE 10.8 mph17.4 kmh 30.17 in1021.7 mb 0.00 in0.0 mm 0.00 in0.0 mm 0.00 in0.0 mm
02:30 PM 57.7°F14.3°C 46.9°F8.3°C 67% 10.6 mph N17.1 kmh N 12.5 mph20.1 kmh 30.18 in1022.0 mb 0.00 in0.0 mm 0.00 in0.0 mm 0.00 in0.0 mm
02:40 PM 57.9°F14.4°C 46.2°F7.9°C 65% 9.8 mph NE15.8 kmh NE 11.8 mph19.0 kmh 30.18 in1022.0 mb 0.00 in0.0 mm 0.00 in0.0 mm 0.00 in0.0 mm
02:50 PM 58.3°F14.6°C 46.6°F8.1°C 65% 10.1 mph N16.3 kmh N 11.8 mph19.0 kmh 30.18 in1022.0 mb 0.00 in0.0 mm 0.00 in0.0 mm 0.00 in0.0 mm
03:00 PM 58.5°F14.7°C 46.3°F7.9°C 64% 11.1 mph NNE17.9 kmh NNE 12.5 mph20.1 kmh 30.18 in1022.0 mb 0.00 in0.0 mm 0.00 in0.0 mm 0.00 in0.0 mm
03:10 PM 58.6°F14.8°C 46.1°F7.8°C 63% 11.5 mph NE18.5 kmh NE 11.8 mph19.0 kmh 30.17 in1021.7 mb 0.00 in0.0 mm 0.00 in0.0 mm 0.00 in0.0 mm
03:20 PM 59.0°F15.0°C 46.0°F7.8°C 62% 9.7 mph NNE15.6 kmh NNE 10.8 mph17.4 kmh 30.18 in1022.0 mb 0.00 in0.0 mm 0.00 in0.0 mm 0.00 in0.0 mm
03:30 PM 58.5°F14.7°C 45.5°F7.5°C 62% 11.1 mph NE17.9 kmh NE 13.3 mph21.4 kmh 30.18 in1022.0 mb 0.00 in0.0 mm 0.00 in0.0 mm 0.00 in0.0 mm
03:40 PM 58.1°F14.5°C 45.1°F7.3°C 62% 10.2 mph NE16.4 kmh NE 11.8 mph19.0 kmh 30.18 in1022.0 mb 0.00 in0.0 mm 0.00 in0.0 mm 0.00 in0.0 mm
03:50 PM 58.1°F14.5°C 45.1°F7.3°C 62% 10.9 mph ENE17.5 kmh ENE 11.8 mph19.0 kmh 30.18 in1022.0 mb 0.00 in0.0 mm 0.00 in0.0 mm 0.00 in0.0 mm
04:00 PM 59.4°F15.2°C 45.9°F7.7°C 61% 10.1 mph NE16.3 kmh NE 13.3 mph21.4 kmh 30.17 in1021.7 mb 0.00 in0.0 mm 0.00 in0.0 mm 0.00 in0.0 mm
04:10 PM 60.4°F15.8°C 46.5°F8.1°C 60% 7.6 mph NE12.2 kmh NE 12.5 mph20.1 kmh 30.17 in1021.7 mb 0.00 in0.0 mm 0.00 in0.0 mm 0.00 in0.0 mm
04:20 PM 58.8°F14.9°C 44.5°F6.9°C 59% 12.2 mph NNE19.6 kmh NNE 11.8 mph19.0 kmh 30.17 in1021.7 mb 0.00 in0.0 mm 0.00 in0.0 mm 0.00 in0.0 mm
04:30 PM 57.6°F14.2°C 45.5°F7.5°C 64% 9.6 mph NNE15.4 kmh NNE 10.8 mph17.4 kmh 30.18 in1022.0 mb 0.00 in0.0 mm 0.00 in0.0 mm 0.00 in0.0 mm
04:40 PM 56.8°F13.8°C 44.4°F6.9°C 63% 10.3 mph NE16.6 kmh NE 11.8 mph19.0 kmh 30.18 in1022.0 mb 0.00 in0.0 mm 0.00 in0.0 mm 0.00 in0.0 mm
04:50 PM 56.3°F13.5°C 44.3°F6.8°C 64% 11.7 mph NNE18.8 kmh NNE 14.3 mph23.0 kmh 30.18 in1022.0 mb 0.00 in0.0 mm 0.00 in0.0 mm 0.00 in0.0 mm
05:00 PM 55.8°F13.2°C 43.8°F6.6°C 64% 9.1 mph NE14.6 kmh NE 11.8 mph19.0 kmh 30.18 in1022.0 mb 0.00 in0.0 mm 0.00 in0.0 mm 0.00 in0.0 mm
05:10 PM 55.9°F13.3°C 43.9°F6.6°C 64% 11.9 mph NE19.2 kmh NE 13.3 mph21.4 kmh 30.18 in1022.0 mb 0.00 in0.0 mm 0.00 in0.0 mm 0.00 in0.0 mm
05:20 PM 56.5°F13.6°C 44.4°F6.9°C 64% 11.6 mph NE18.7 kmh NE 12.5 mph20.1 kmh 30.17 in1021.7 mb 0.00 in0.0 mm 0.00 in0.0 mm 0.00 in0.0 mm
05:30 PM 56.8°F13.8°C 44.4°F6.9°C 63% 10.1 mph NE16.3 kmh NE 10.8 mph17.4 kmh 30.17 in1021.7 mb 0.00 in0.0 mm 0.00 in0.0 mm 0.00 in0.0 mm
05:40 PM 56.8°F13.8°C 44.4°F6.9°C 63% 10.3 mph N16.6 kmh N 12.5 mph20.1 kmh 30.17 in1021.7 mb 0.00 in0.0 mm 0.00 in0.0 mm 0.00 in0.0 mm
05:50 PM 56.8°F13.8°C 44.0°F6.7°C 62% 9.2 mph N14.8 kmh N 10.1 mph16.3 kmh 30.17 in1021.7 mb 0.00 in0.0 mm 0.00 in0.0 mm 0.00 in0.0 mm
06:00 PM 55.9°F13.3°C 44.3°F6.8°C 65% 11.5 mph NNE18.5 kmh NNE 13.3 mph21.4 kmh 30.17 in1021.7 mb 0.00 in0.0 mm 0.00 in0.0 mm 0.00 in0.0 mm
06:10 PM 55.2°F12.9°C 44.4°F6.9°C 67% 9.4 mph NNE15.1 kmh NNE 10.8 mph17.4 kmh 30.17 in1021.7 mb 0.00 in0.0 mm 0.00 in0.0 mm 0.00 in0.0 mm
06:20 PM 54.9°F12.7°C 45.6°F7.6°C 71% 8.5 mph NNE13.7 kmh NNE 10.8 mph17.4 kmh 30.17 in1021.7 mb 0.00 in0.0 mm 0.00 in0.0 mm 0.00 in0.0 mm
06:30 PM 54.0°F12.2°C 45.5°F7.5°C 73% 9.9 mph NE15.9 kmh NE 11.8 mph19.0 kmh 30.18 in1022.0 mb 0.00 in0.0 mm 0.00 in0.0 mm 0.00 in0.0 mm
06:40 PM 53.4°F11.9°C 45.7°F7.6°C 75% 10.0 mph NE16.1 kmh NE 11.8 mph19.0 kmh 30.17 in1021.7 mb 0.00 in0.0 mm 0.00 in0.0 mm 0.00 in0.0 mm
06:50 PM 52.9°F11.6°C 45.9°F7.7°C 77% 8.8 mph NNE14.2 kmh NNE 11.8 mph19.0 kmh 30.18 in1022.0 mb 0.00 in0.0 mm 0.00 in0.0 mm 0.00 in0.0 mm
07:00 PM 52.5°F11.4°C 46.2°F7.9°C 79% 8.1 mph NNE13.0 kmh NNE 9.1 mph14.6 kmh 30.18 in1022.0 mb 0.00 in0.0 mm 0.00 in0.0 mm 0.00 in0.0 mm
07:10 PM 52.2°F11.2°C 46.8°F8.2°C 82% 8.4 mph NE13.5 kmh NE 10.1 mph16.3 kmh 30.18 in1022.0 mb 0.00 in0.0 mm 0.00 in0.0 mm 0.00 in0.0 mm
07:20 PM 51.6°F10.9°C 46.9°F8.3°C 84% 5.7 mph NE9.2 kmh NE 7.6 mph12.2 kmh 30.18 in1022.0 mb 0.00 in0.0 mm 0.00 in0.0 mm 0.00 in0.0 mm
07:30 PM 51.3°F10.7°C 46.9°F8.3°C 85% 7.5 mph NNE12.1 kmh NNE 8.4 mph13.5 kmh 30.18 in1022.0 mb 0.00 in0.0 mm 0.00 in0.0 mm 0.00 in0.0 mm
07:40 PM 50.9°F10.5°C 46.6°F8.1°C 85% 6.8 mph N10.9 kmh N 7.6 mph12.2 kmh 30.19 in1022.4 mb 0.00 in0.0 mm 0.00 in0.0 mm 0.00 in0.0 mm
07:50 PM 50.5°F10.3°C 46.5°F8.1°C 86% 5.5 mph NNE8.9 kmh NNE 8.4 mph13.5 kmh 30.18 in1022.0 mb 0.00 in0.0 mm 0.00 in0.0 mm 0.00 in0.0 mm
08:00 PM 50.0°F10.0°C 46.3°F7.9°C 87% 3.6 mph NE5.8 kmh NE 5.9 mph9.5 kmh 30.19 in1022.4 mb 0.00 in0.0 mm 0.00 in0.0 mm 0.00 in0.0 mm
08:10 PM 49.6°F9.8°C 46.2°F7.9°C 88% 2.0 mph NE3.2 kmh NE 4.9 mph7.9 kmh 30.19 in1022.4 mb 0.00 in0.0 mm 0.00 in0.0 mm 0.00 in0.0 mm
08:20 PM 49.1°F9.5°C 46.3°F7.9°C 90% 4.3 mph N6.9 kmh N 4.9 mph7.9 kmh 30.19 in1022.4 mb 0.00 in0.0 mm 0.00 in0.0 mm 0.00 in0.0 mm
08:30 PM 48.7°F9.3°C 46.2°F7.9°C 91% 4.7 mph N7.6 kmh N 4.9 mph7.9 kmh 30.19 in1022.4 mb 0.00 in0.0 mm 0.00 in0.0 mm 0.00 in0.0 mm
08:40 PM 48.4°F9.1°C 46.2°F7.9°C 92% 3.8 mph NE6.1 kmh NE 4.9 mph7.9 kmh 30.20 in1022.7 mb 0.00 in0.0 mm 0.00 in0.0 mm 0.00 in0.0 mm
08:50 PM 48.2°F9.0°C 46.3°F7.9°C 93% 3.8 mph NNE6.1 kmh NNE 4.2 mph6.8 kmh 30.20 in1022.7 mb 0.00 in0.0 mm 0.00 in0.0 mm 0.00 in0.0 mm
09:00 PM 47.8°F8.8°C 45.9°F7.7°C 93% 3.6 mph N5.8 kmh N 4.2 mph6.8 kmh 30.20 in1022.7 mb 0.00 in0.0 mm 0.00 in0.0 mm 0.00 in0.0 mm
09:10 PM 47.7°F8.7°C 45.7°F7.6°C 93% 1.7 mph NNE2.7 kmh NNE 3.4 mph5.5 kmh 30.20 in1022.7 mb 0.00 in0.0 mm 0.00 in0.0 mm 0.00 in0.0 mm
09:20 PM 47.3°F8.5°C 45.4°F7.4°C 93% 2.5 mph NE4.0 kmh NE 3.4 mph5.5 kmh 30.20 in1022.7 mb 0.00 in0.0 mm 0.00 in0.0 mm 0.00 in0.0 mm
09:30 PM 46.9°F8.3°C 45.0°F7.2°C 93% 1.9 mph NE3.1 kmh NE 3.4 mph5.5 kmh 30.19 in1022.4 mb 0.00 in0.0 mm 0.00 in0.0 mm 0.00 in0.0 mm
09:40 PM 46.8°F8.2°C 45.1°F7.3°C 94% 3.5 mph ENE5.6 kmh ENE 4.2 mph6.8 kmh 30.19 in1022.4 mb 0.00 in0.0 mm 0.00 in0.0 mm 0.00 in0.0 mm
09:50 PM 46.4°F8.0°C 45.0°F7.2°C 95% 2.1 mph NE3.4 kmh NE 3.4 mph5.5 kmh 30.20 in1022.7 mb 0.00 in0.0 mm 0.00 in0.0 mm 0.00 in0.0 mm
10:00 PM 46.0°F7.8°C 45.0°F7.2°C 96% 3.5 mph NE5.6 kmh NE 4.2 mph6.8 kmh 30.19 in1022.4 mb 0.00 in0.0 mm 0.00 in0.0 mm 0.00 in0.0 mm
10:10 PM 45.9°F7.7°C 45.1°F7.3°C 97% 2.8 mph N4.5 kmh N 3.4 mph5.5 kmh 30.19 in1022.4 mb 0.00 in0.0 mm 0.00 in0.0 mm 0.00 in0.0 mm
10:20 PM 45.5°F7.5°C 44.7°F7.1°C 97% 2.3 mph NE3.7 kmh NE 3.4 mph5.5 kmh 30.19 in1022.4 mb 0.00 in0.0 mm 0.00 in0.0 mm 0.00 in0.0 mm
10:30 PM 45.5°F7.5°C 45.0°F7.2°C 98% 1.8 mph NE2.9 kmh NE 2.5 mph4.0 kmh 30.19 in1022.4 mb 0.00 in0.0 mm 0.00 in0.0 mm 0.00 in0.0 mm
10:40 PM 45.3°F7.4°C 44.8°F7.1°C 98% 1.9 mph E3.1 kmh E 3.4 mph5.5 kmh 30.19 in1022.4 mb 0.00 in0.0 mm 0.00 in0.0 mm 0.00 in0.0 mm
10:50 PM 45.1°F7.3°C 44.9°F7.2°C 99% 3.4 mph NE5.5 kmh NE 4.9 mph7.9 kmh 30.19 in1022.4 mb 0.00 in0.0 mm 0.00 in0.0 mm 0.00 in0.0 mm
11:00 PM 45.0°F7.2°C 44.7°F7.1°C 99% 4.1 mph E6.6 kmh E 4.9 mph7.9 kmh 30.19 in1022.4 mb 0.00 in0.0 mm 0.00 in0.0 mm 0.00 in0.0 mm
11:10 PM 45.0°F7.2°C 45.0°F7.2°C 100% 3.3 mph ENE5.3 kmh ENE 4.2 mph6.8 kmh 30.19 in1022.4 mb 0.00 in0.0 mm 0.00 in0.0 mm 0.00 in0.0 mm
11:20 PM 45.0°F7.2°C 45.0°F7.2°C 100% 3.3 mph NE5.3 kmh NE 4.9 mph7.9 kmh 30.19 in1022.4 mb 0.00 in0.0 mm 0.00 in0.0 mm 0.00 in0.0 mm
11:30 PM 45.1°F7.3°C 45.1°F7.3°C 100% 2.5 mph NE4.0 kmh NE 4.9 mph7.9 kmh 30.19 in1022.4 mb 0.00 in0.0 mm 0.00 in0.0 mm 0.00 in0.0 mm
11:40 PM 45.7°F7.6°C 45.7°F7.6°C 100% 3.9 mph NNE6.3 kmh NNE 5.9 mph9.5 kmh 30.18 in1022.0 mb 0.00 in0.0 mm 0.00 in0.0 mm 0.00 in0.0 mm
11:50 PM 45.9°F7.7°C 45.9°F7.7°C 100% 3.9 mph NE6.3 kmh NE 5.9 mph9.5 kmh 30.18 in1022.0 mb 0.00 in0.0 mm 0.00 in0.0 mm 0.00 in0.0 mm